sensor_id;sensor_type;location;lat;lon;timestamp;temperature;humidity
4187;DHT22;2107;52.306;10.484;2023-01-23T00:00:46;1.30;99.90
4187;DHT22;2107;52.306;10.484;2023-01-23T00:03:13;1.30;99.90
4187;DHT22;2107;52.306;10.484;2023-01-23T00:05:40;1.40;99.90
4187;DHT22;2107;52.306;10.484;2023-01-23T00:08:07;1.30;99.90
4187;DHT22;2107;52.306;10.484;2023-01-23T00:10:34;1.30;99.90
4187;DHT22;2107;52.306;10.484;2023-01-23T00:13:01;1.30;99.90
4187;DHT22;2107;52.306;10.484;2023-01-23T00:15:29;1.20;99.90
4187;DHT22;2107;52.306;10.484;2023-01-23T00:17:57;1.20;99.90
4187;DHT22;2107;52.306;10.484;2023-01-23T00:20:24;1.30;99.90
4187;DHT22;2107;52.306;10.484;2023-01-23T00:22:51;1.30;99.90
4187;DHT22;2107;52.306;10.484;2023-01-23T00:25:17;1.30;99.90
4187;DHT22;2107;52.306;10.484;2023-01-23T00:27:44;1.30;99.90
4187;DHT22;2107;52.306;10.484;2023-01-23T00:30:11;1.30;99.90
4187;DHT22;2107;52.306;10.484;2023-01-23T00:32:41;1.30;99.90
4187;DHT22;2107;52.306;10.484;2023-01-23T00:35:08;1.30;99.90
4187;DHT22;2107;52.306;10.484;2023-01-23T00:37:35;1.30;99.90
4187;DHT22;2107;52.306;10.484;2023-01-23T00:40:02;1.30;99.90
4187;DHT22;2107;52.306;10.484;2023-01-23T00:42:29;1.30;99.90
4187;DHT22;2107;52.306;10.484;2023-01-23T00:44:56;1.30;99.90
4187;DHT22;2107;52.306;10.484;2023-01-23T00:47:23;1.30;99.90
4187;DHT22;2107;52.306;10.484;2023-01-23T00:49:51;1.40;99.90
4187;DHT22;2107;52.306;10.484;2023-01-23T00:52:19;1.30;99.90
4187;DHT22;2107;52.306;10.484;2023-01-23T00:54:46;1.30;99.90
4187;DHT22;2107;52.306;10.484;2023-01-23T00:57:13;1.30;99.90
4187;DHT22;2107;52.306;10.484;2023-01-23T00:59:40;1.30;99.90
4187;DHT22;2107;52.306;10.484;2023-01-23T01:02:07;1.30;99.90
4187;DHT22;2107;52.306;10.484;2023-01-23T01:04:34;1.30;99.90
4187;DHT22;2107;52.306;10.484;2023-01-23T01:07:02;1.30;99.90
4187;DHT22;2107;52.306;10.484;2023-01-23T01:09:29;1.40;99.90
4187;DHT22;2107;52.306;10.484;2023-01-23T01:11:55;1.30;99.90
4187;DHT22;2107;52.306;10.484;2023-01-23T01:14:22;1.30;99.90
4187;DHT22;2107;52.306;10.484;2023-01-23T01:16:49;1.30;99.90
4187;DHT22;2107;52.306;10.484;2023-01-23T01:19:16;1.30;99.90
4187;DHT22;2107;52.306;10.484;2023-01-23T01:21:43;1.30;99.90
4187;DHT22;2107;52.306;10.484;2023-01-23T01:24:12;1.30;99.90
4187;DHT22;2107;52.306;10.484;2023-01-23T01:26:38;1.30;99.90
4187;DHT22;2107;52.306;10.484;2023-01-23T01:29:05;1.30;99.90
4187;DHT22;2107;52.306;10.484;2023-01-23T01:31:32;1.30;99.90
4187;DHT22;2107;52.306;10.484;2023-01-23T01:33:59;1.40;99.90
4187;DHT22;2107;52.306;10.484;2023-01-23T01:36:26;1.40;99.90
4187;DHT22;2107;52.306;10.484;2023-01-23T01:38:53;1.40;99.90
4187;DHT22;2107;52.306;10.484;2023-01-23T01:41:21;1.40;99.90
4187;DHT22;2107;52.306;10.484;2023-01-23T01:43:48;1.40;99.90
4187;DHT22;2107;52.306;10.484;2023-01-23T01:46:20;1.40;99.90
4187;DHT22;2107;52.306;10.484;2023-01-23T01:48:51;1.50;99.90
4187;DHT22;2107;52.306;10.484;2023-01-23T01:51:24;1.50;99.90
4187;DHT22;2107;52.306;10.484;2023-01-23T01:53:59;1.50;99.90
4187;DHT22;2107;52.306;10.484;2023-01-23T01:56:29;1.40;99.90
4187;DHT22;2107;52.306;10.484;2023-01-23T01:58:58;1.50;99.90
4187;DHT22;2107;52.306;10.484;2023-01-23T02:01:26;1.40;99.90
4187;DHT22;2107;52.306;10.484;2023-01-23T02:03:54;1.40;99.90
4187;DHT22;2107;52.306;10.484;2023-01-23T02:06:21;1.50;99.90
4187;DHT22;2107;52.306;10.484;2023-01-23T02:08:52;1.60;99.90
4187;DHT22;2107;52.306;10.484;2023-01-23T02:11:22;1.50;99.90
4187;DHT22;2107;52.306;10.484;2023-01-23T02:13:50;1.50;99.90
4187;DHT22;2107;52.306;10.484;2023-01-23T02:16:22;1.50;99.90
4187;DHT22;2107;52.306;10.484;2023-01-23T02:18:53;1.50;99.90
4187;DHT22;2107;52.306;10.484;2023-01-23T02:21:23;1.50;99.90
4187;DHT22;2107;52.306;10.484;2023-01-23T02:24:00;1.60;99.90
4187;DHT22;2107;52.306;10.484;2023-01-23T02:26:33;1.50;99.90
4187;DHT22;2107;52.306;10.484;2023-01-23T02:29:01;1.50;99.90
4187;DHT22;2107;52.306;10.484;2023-01-23T02:31:28;1.60;99.90
4187;DHT22;2107;52.306;10.484;2023-01-23T02:33:57;1.60;99.90
4187;DHT22;2107;52.306;10.484;2023-01-23T02:36:27;1.60;99.90
4187;DHT22;2107;52.306;10.484;2023-01-23T02:38:59;1.60;99.90
4187;DHT22;2107;52.306;10.484;2023-01-23T02:41:30;1.60;99.90
4187;DHT22;2107;52.306;10.484;2023-01-23T02:44:01;1.50;99.90
4187;DHT22;2107;52.306;10.484;2023-01-23T02:46:28;1.60;99.90
4187;DHT22;2107;52.306;10.484;2023-01-23T02:48:56;1.50;99.90
4187;DHT22;2107;52.306;10.484;2023-01-23T02:51:22;1.50;99.90
4187;DHT22;2107;52.306;10.484;2023-01-23T02:53:49;1.50;99.90
4187;DHT22;2107;52.306;10.484;2023-01-23T02:56:16;1.50;99.90
4187;DHT22;2107;52.306;10.484;2023-01-23T02:58:45;1.50;99.90
4187;DHT22;2107;52.306;10.484;2023-01-23T03:01:35;1.50;99.90
4187;DHT22;2107;52.306;10.484;2023-01-23T03:04:02;1.50;99.90
4187;DHT22;2107;52.306;10.484;2023-01-23T03:06:31;1.50;99.90
4187;DHT22;2107;52.306;10.484;2023-01-23T03:09:11;1.50;99.90
4187;DHT22;2107;52.306;10.484;2023-01-23T03:11:40;1.50;99.90
4187;DHT22;2107;52.306;10.484;2023-01-23T03:14:10;1.50;99.90
4187;DHT22;2107;52.306;10.484;2023-01-23T03:16:37;1.50;99.90
4187;DHT22;2107;52.306;10.484;2023-01-23T03:19:07;1.50;99.90
4187;DHT22;2107;52.306;10.484;2023-01-23T03:21:35;1.50;99.90
4187;DHT22;2107;52.306;10.484;2023-01-23T03:24:03;1.50;99.90
4187;DHT22;2107;52.306;10.484;2023-01-23T03:26:30;1.60;99.90
4187;DHT22;2107;52.306;10.484;2023-01-23T03:28:57;1.50;99.90
4187;DHT22;2107;52.306;10.484;2023-01-23T03:31:43;1.50;99.90
4187;DHT22;2107;52.306;10.484;2023-01-23T03:34:10;1.40;99.90
4187;DHT22;2107;52.306;10.484;2023-01-23T03:36:37;1.40;99.90
4187;DHT22;2107;52.306;10.484;2023-01-23T03:39:04;1.40;99.90
4187;DHT22;2107;52.306;10.484;2023-01-23T03:41:50;1.50;99.90
4187;DHT22;2107;52.306;10.484;2023-01-23T03:44:18;1.40;99.90
4187;DHT22;2107;52.306;10.484;2023-01-23T03:46:47;1.50;99.90
4187;DHT22;2107;52.306;10.484;2023-01-23T03:49:14;1.50;99.90
4187;DHT22;2107;52.306;10.484;2023-01-23T03:51:41;1.40;99.90
4187;DHT22;2107;52.306;10.484;2023-01-23T03:54:08;1.50;99.90
4187;DHT22;2107;52.306;10.484;2023-01-23T03:56:36;1.50;99.90
4187;DHT22;2107;52.306;10.484;2023-01-23T03:59:02;1.60;99.90
4187;DHT22;2107;52.306;10.484;2023-01-23T04:01:29;1.40;99.90
4187;DHT22;2107;52.306;10.484;2023-01-23T04:03:58;1.40;99.90
4187;DHT22;2107;52.306;10.484;2023-01-23T04:06:25;1.40;99.90
4187;DHT22;2107;52.306;10.484;2023-01-23T04:08:52;1.40;99.90
4187;DHT22;2107;52.306;10.484;2023-01-23T04:11:19;1.40;99.90
4187;DHT22;2107;52.306;10.484;2023-01-23T04:13:46;1.50;99.90
4187;DHT22;2107;52.306;10.484;2023-01-23T04:16:13;1.40;99.90
4187;DHT22;2107;52.306;10.484;2023-01-23T04:18:40;1.40;99.90
4187;DHT22;2107;52.306;10.484;2023-01-23T04:21:08;1.30;99.90
4187;DHT22;2107;52.306;10.484;2023-01-23T04:23:35;1.30;99.90
4187;DHT22;2107;52.306;10.484;2023-01-23T04:26:02;1.30;99.90
4187;DHT22;2107;52.306;10.484;2023-01-23T04:28:29;1.30;99.90
4187;DHT22;2107;52.306;10.484;2023-01-23T04:30:56;1.30;99.90
4187;DHT22;2107;52.306;10.484;2023-01-23T04:33:23;1.20;99.90
4187;DHT22;2107;52.306;10.484;2023-01-23T04:35:53;1.20;99.90
4187;DHT22;2107;52.306;10.484;2023-01-23T04:38:21;1.20;99.90
4187;DHT22;2107;52.306;10.484;2023-01-23T04:40:49;1.30;99.90
4187;DHT22;2107;52.306;10.484;2023-01-23T04:43:16;1.20;99.90
4187;DHT22;2107;52.306;10.484;2023-01-23T04:45:43;1.30;99.90
4187;DHT22;2107;52.306;10.484;2023-01-23T04:48:10;1.30;99.90
4187;DHT22;2107;52.306;10.484;2023-01-23T04:50:37;1.30;99.90
4187;DHT22;2107;52.306;10.484;2023-01-23T04:53:04;1.20;99.90
4187;DHT22;2107;52.306;10.484;2023-01-23T04:55:33;1.30;99.90
4187;DHT22;2107;52.306;10.484;2023-01-23T04:58:00;1.20;99.90
4187;DHT22;2107;52.306;10.484;2023-01-23T05:00:27;1.30;99.90
4187;DHT22;2107;52.306;10.484;2023-01-23T05:02:55;1.30;99.90
4187;DHT22;2107;52.306;10.484;2023-01-23T05:05:23;1.30;99.90
4187;DHT22;2107;52.306;10.484;2023-01-23T05:07:50;1.30;99.90
4187;DHT22;2107;52.306;10.484;2023-01-23T05:10:17;1.10;99.90
4187;DHT22;2107;52.306;10.484;2023-01-23T05:12:45;1.10;99.90
4187;DHT22;2107;52.306;10.484;2023-01-23T05:15:12;1.20;99.90
4187;DHT22;2107;52.306;10.484;2023-01-23T05:17:39;1.20;99.90
4187;DHT22;2107;52.306;10.484;2023-01-23T05:20:07;1.10;99.90
4187;DHT22;2107;52.306;10.484;2023-01-23T05:22:34;1.10;99.90
4187;DHT22;2107;52.306;10.484;2023-01-23T05:25:01;1.20;99.90
4187;DHT22;2107;52.306;10.484;2023-01-23T05:27:28;1.20;99.90
4187;DHT22;2107;52.306;10.484;2023-01-23T05:29:56;1.20;99.90
4187;DHT22;2107;52.306;10.484;2023-01-23T05:32:24;1.20;99.90
4187;DHT22;2107;52.306;10.484;2023-01-23T05:34:51;1.20;99.90
4187;DHT22;2107;52.306;10.484;2023-01-23T05:37:18;1.20;99.90
4187;DHT22;2107;52.306;10.484;2023-01-23T05:39:45;1.20;99.90
4187;DHT22;2107;52.306;10.484;2023-01-23T05:42:11;1.10;99.90
4187;DHT22;2107;52.306;10.484;2023-01-23T05:44:38;1.10;99.90
4187;DHT22;2107;52.306;10.484;2023-01-23T05:47:06;1.20;99.90
4187;DHT22;2107;52.306;10.484;2023-01-23T05:49:33;1.20;99.90
4187;DHT22;2107;52.306;10.484;2023-01-23T05:52:00;1.20;99.90
4187;DHT22;2107;52.306;10.484;2023-01-23T05:54:27;1.20;99.90
4187;DHT22;2107;52.306;10.484;2023-01-23T05:56:54;1.20;99.90
4187;DHT22;2107;52.306;10.484;2023-01-23T05:59:21;1.20;99.90
4187;DHT22;2107;52.306;10.484;2023-01-23T06:01:48;1.20;99.90
4187;DHT22;2107;52.306;10.484;2023-01-23T06:04:16;1.20;99.90
4187;DHT22;2107;52.306;10.484;2023-01-23T06:06:43;1.20;99.90
4187;DHT22;2107;52.306;10.484;2023-01-23T06:09:10;1.20;99.90
4187;DHT22;2107;52.306;10.484;2023-01-23T06:11:37;1.20;99.90
4187;DHT22;2107;52.306;10.484;2023-01-23T06:14:04;1.30;99.90
4187;DHT22;2107;52.306;10.484;2023-01-23T06:16:31;1.20;99.90
4187;DHT22;2107;52.306;10.484;2023-01-23T06:18:58;1.20;99.90
4187;DHT22;2107;52.306;10.484;2023-01-23T06:21:26;1.20;99.90
4187;DHT22;2107;52.306;10.484;2023-01-23T06:23:53;1.10;99.90
4187;DHT22;2107;52.306;10.484;2023-01-23T06:26:20;1.20;99.90
4187;DHT22;2107;52.306;10.484;2023-01-23T06:28:47;1.10;99.90
4187;DHT22;2107;52.306;10.484;2023-01-23T06:31:14;1.20;99.90
4187;DHT22;2107;52.306;10.484;2023-01-23T06:33:41;1.20;99.90
4187;DHT22;2107;52.306;10.484;2023-01-23T06:36:08;1.20;99.90
4187;DHT22;2107;52.306;10.484;2023-01-23T06:38:37;1.20;99.90
4187;DHT22;2107;52.306;10.484;2023-01-23T06:41:04;1.30;99.90
4187;DHT22;2107;52.306;10.484;2023-01-23T06:43:30;1.30;99.90
4187;DHT22;2107;52.306;10.484;2023-01-23T06:45:57;1.30;99.90
4187;DHT22;2107;52.306;10.484;2023-01-23T06:48:24;1.20;99.90
4187;DHT22;2107;52.306;10.484;2023-01-23T06:50:51;1.20;99.90
4187;DHT22;2107;52.306;10.484;2023-01-23T06:53:18;1.30;99.90
4187;DHT22;2107;52.306;10.484;2023-01-23T06:55:47;1.30;99.90
4187;DHT22;2107;52.306;10.484;2023-01-23T06:58:14;1.30;99.90
4187;DHT22;2107;52.306;10.484;2023-01-23T07:00:40;1.20;99.90
4187;DHT22;2107;52.306;10.484;2023-01-23T07:03:10;1.20;99.90
4187;DHT22;2107;52.306;10.484;2023-01-23T07:05:37;1.30;99.90
4187;DHT22;2107;52.306;10.484;2023-01-23T07:08:05;1.30;99.90
4187;DHT22;2107;52.306;10.484;2023-01-23T07:10:33;1.40;99.90
4187;DHT22;2107;52.306;10.484;2023-01-23T07:13:03;1.30;99.90
4187;DHT22;2107;52.306;10.484;2023-01-23T07:15:30;1.40;99.90
4187;DHT22;2107;52.306;10.484;2023-01-23T07:17:58;1.40;99.90
4187;DHT22;2107;52.306;10.484;2023-01-23T07:20:25;1.40;99.90
4187;DHT22;2107;52.306;10.484;2023-01-23T07:22:52;1.30;99.90
4187;DHT22;2107;52.306;10.484;2023-01-23T07:25:20;1.30;99.90
4187;DHT22;2107;52.306;10.484;2023-01-23T07:27:47;1.30;99.90
4187;DHT22;2107;52.306;10.484;2023-01-23T07:30:16;1.30;99.90
4187;DHT22;2107;52.306;10.484;2023-01-23T07:32:43;1.30;99.90
4187;DHT22;2107;52.306;10.484;2023-01-23T07:35:10;1.30;99.90
4187;DHT22;2107;52.306;10.484;2023-01-23T07:37:36;1.30;99.90
4187;DHT22;2107;52.306;10.484;2023-01-23T07:40:04;1.40;99.90
4187;DHT22;2107;52.306;10.484;2023-01-23T07:42:31;1.40;99.90
4187;DHT22;2107;52.306;10.484;2023-01-23T07:44:58;1.40;99.90
4187;DHT22;2107;52.306;10.484;2023-01-23T07:47:26;1.40;99.90
4187;DHT22;2107;52.306;10.484;2023-01-23T07:49:53;1.40;99.90
4187;DHT22;2107;52.306;10.484;2023-01-23T07:52:20;1.40;99.90
4187;DHT22;2107;52.306;10.484;2023-01-23T07:54:46;1.40;99.90
4187;DHT22;2107;52.306;10.484;2023-01-23T07:57:13;1.40;99.90
4187;DHT22;2107;52.306;10.484;2023-01-23T07:59:40;1.40;99.90
4187;DHT22;2107;52.306;10.484;2023-01-23T08:02:08;1.40;99.90
4187;DHT22;2107;52.306;10.484;2023-01-23T08:04:36;1.40;99.90
4187;DHT22;2107;52.306;10.484;2023-01-23T08:07:04;1.40;99.90
4187;DHT22;2107;52.306;10.484;2023-01-23T08:09:32;1.50;99.90
4187;DHT22;2107;52.306;10.484;2023-01-23T08:11:59;1.50;99.90
4187;DHT22;2107;52.306;10.484;2023-01-23T08:14:26;1.50;99.90
4187;DHT22;2107;52.306;10.484;2023-01-23T08:16:53;1.60;99.90
4187;DHT22;2107;52.306;10.484;2023-01-23T08:19:20;1.50;99.90
4187;DHT22;2107;52.306;10.484;2023-01-23T08:21:48;1.60;99.90
4187;DHT22;2107;52.306;10.484;2023-01-23T08:24:14;1.50;99.90
4187;DHT22;2107;52.306;10.484;2023-01-23T08:26:42;1.60;99.90
4187;DHT22;2107;52.306;10.484;2023-01-23T08:29:09;1.60;99.90
4187;DHT22;2107;52.306;10.484;2023-01-23T08:31:36;1.60;99.90
4187;DHT22;2107;52.306;10.484;2023-01-23T08:34:03;1.70;99.90
4187;DHT22;2107;52.306;10.484;2023-01-23T08:36:30;1.60;99.90
4187;DHT22;2107;52.306;10.484;2023-01-23T08:38:58;1.60;99.90
4187;DHT22;2107;52.306;10.484;2023-01-23T08:41:25;1.60;99.90
4187;DHT22;2107;52.306;10.484;2023-01-23T08:43:52;1.50;99.90
4187;DHT22;2107;52.306;10.484;2023-01-23T08:46:19;1.60;99.90
4187;DHT22;2107;52.306;10.484;2023-01-23T08:48:46;1.70;99.90
4187;DHT22;2107;52.306;10.484;2023-01-23T08:51:13;1.80;99.90
4187;DHT22;2107;52.306;10.484;2023-01-23T08:53:40;1.80;99.90
4187;DHT22;2107;52.306;10.484;2023-01-23T08:56:13;1.80;99.90
4187;DHT22;2107;52.306;10.484;2023-01-23T08:58:40;1.90;99.90
4187;DHT22;2107;52.306;10.484;2023-01-23T09:01:10;2.00;99.90
4187;DHT22;2107;52.306;10.484;2023-01-23T09:03:37;1.80;99.90
4187;DHT22;2107;52.306;10.484;2023-01-23T09:06:04;1.80;99.90
4187;DHT22;2107;52.306;10.484;2023-01-23T09:08:32;1.90;99.90
4187;DHT22;2107;52.306;10.484;2023-01-23T09:10:59;1.80;99.90
4187;DHT22;2107;52.306;10.484;2023-01-23T09:13:28;1.80;99.90
4187;DHT22;2107;52.306;10.484;2023-01-23T09:15:55;1.90;99.90
4187;DHT22;2107;52.306;10.484;2023-01-23T09:18:22;1.90;99.90
4187;DHT22;2107;52.306;10.484;2023-01-23T09:20:49;2.00;99.90
4187;DHT22;2107;52.306;10.484;2023-01-23T09:23:16;1.80;99.90
4187;DHT22;2107;52.306;10.484;2023-01-23T09:25:43;1.80;99.90
4187;DHT22;2107;52.306;10.484;2023-01-23T09:28:10;1.90;99.90
4187;DHT22;2107;52.306;10.484;2023-01-23T09:30:39;2.00;99.90
4187;DHT22;2107;52.306;10.484;2023-01-23T09:33:06;2.00;99.90
4187;DHT22;2107;52.306;10.484;2023-01-23T09:35:33;1.90;99.90
4187;DHT22;2107;52.306;10.484;2023-01-23T09:38:02;2.00;99.90
4187;DHT22;2107;52.306;10.484;2023-01-23T09:40:34;2.10;99.90
4187;DHT22;2107;52.306;10.484;2023-01-23T09:43:08;2.10;99.90
4187;DHT22;2107;52.306;10.484;2023-01-23T09:45:40;2.10;99.90
4187;DHT22;2107;52.306;10.484;2023-01-23T09:48:17;2.10;99.90
4187;DHT22;2107;52.306;10.484;2023-01-23T09:50:52;2.10;99.90
4187;DHT22;2107;52.306;10.484;2023-01-23T09:53:22;2.10;99.90
4187;DHT22;2107;52.306;10.484;2023-01-23T09:55:55;2.10;99.90
4187;DHT22;2107;52.306;10.484;2023-01-23T09:58:27;2.10;99.90
4187;DHT22;2107;52.306;10.484;2023-01-23T10:00:55;1.90;99.90
4187;DHT22;2107;52.306;10.484;2023-01-23T10:03:28;2.00;99.90
4187;DHT22;2107;52.306;10.484;2023-01-23T10:06:07;2.00;99.90
4187;DHT22;2107;52.306;10.484;2023-01-23T10:08:45;2.00;99.90
4187;DHT22;2107;52.306;10.484;2023-01-23T10:11:22;2.00;99.90
4187;DHT22;2107;52.306;10.484;2023-01-23T10:14:15;2.10;99.90
4187;DHT22;2107;52.306;10.484;2023-01-23T10:17:04;2.10;99.90
4187;DHT22;2107;52.306;10.484;2023-01-23T10:19:44;2.20;99.90
4187;DHT22;2107;52.306;10.484;2023-01-23T10:22:27;2.20;99.90
4187;DHT22;2107;52.306;10.484;2023-01-23T10:24:59;2.30;99.90
4187;DHT22;2107;52.306;10.484;2023-01-23T10:27:33;2.30;99.90
4187;DHT22;2107;52.306;10.484;2023-01-23T10:30:06;2.30;99.90
4187;DHT22;2107;52.306;10.484;2023-01-23T10:32:45;2.30;99.90
4187;DHT22;2107;52.306;10.484;2023-01-23T10:35:16;2.30;99.90
4187;DHT22;2107;52.306;10.484;2023-01-23T10:37:47;2.30;99.90
4187;DHT22;2107;52.306;10.484;2023-01-23T10:40:17;2.30;99.90
4187;DHT22;2107;52.306;10.484;2023-01-23T10:43:10;2.40;99.90
4187;DHT22;2107;52.306;10.484;2023-01-23T10:45:38;2.40;99.90
4187;DHT22;2107;52.306;10.484;2023-01-23T10:48:28;2.40;99.90
4187;DHT22;2107;52.306;10.484;2023-01-23T10:51:03;2.30;99.90
4187;DHT22;2107;52.306;10.484;2023-01-23T10:53:30;2.30;99.90
4187;DHT22;2107;52.306;10.484;2023-01-23T10:55:58;2.40;99.90
4187;DHT22;2107;52.306;10.484;2023-01-23T10:58:31;2.30;99.90
4187;DHT22;2107;52.306;10.484;2023-01-23T11:00:59;2.40;99.90
4187;DHT22;2107;52.306;10.484;2023-01-23T11:03:30;2.30;99.90
4187;DHT22;2107;52.306;10.484;2023-01-23T11:06:02;2.30;99.90
4187;DHT22;2107;52.306;10.484;2023-01-23T11:08:30;2.40;99.90
4187;DHT22;2107;52.306;10.484;2023-01-23T11:11:17;2.40;99.90
4187;DHT22;2107;52.306;10.484;2023-01-23T11:13:46;2.30;99.90
4187;DHT22;2107;52.306;10.484;2023-01-23T11:16:16;2.30;99.90
4187;DHT22;2107;52.306;10.484;2023-01-23T11:18:49;2.40;99.90
4187;DHT22;2107;52.306;10.484;2023-01-23T11:21:21;2.40;99.90
4187;DHT22;2107;52.306;10.484;2023-01-23T11:24:06;2.40;99.90
4187;DHT22;2107;52.306;10.484;2023-01-23T11:26:34;2.50;99.90
4187;DHT22;2107;52.306;10.484;2023-01-23T11:29:01;2.50;99.90
4187;DHT22;2107;52.306;10.484;2023-01-23T11:31:29;2.40;99.90
4187;DHT22;2107;52.306;10.484;2023-01-23T11:34:04;2.30;99.90
4187;DHT22;2107;52.306;10.484;2023-01-23T11:36:41;2.30;99.90
4187;DHT22;2107;52.306;10.484;2023-01-23T11:39:20;2.30;99.90
4187;DHT22;2107;52.306;10.484;2023-01-23T11:41:47;2.30;99.90
4187;DHT22;2107;52.306;10.484;2023-01-23T11:44:16;2.40;99.90
4187;DHT22;2107;52.306;10.484;2023-01-23T11:46:57;2.50;99.90
4187;DHT22;2107;52.306;10.484;2023-01-23T11:49:48;2.50;99.90
4187;DHT22;2107;52.306;10.484;2023-01-23T11:52:29;2.50;99.90
4187;DHT22;2107;52.306;10.484;2023-01-23T11:55:26;2.40;99.90
4187;DHT22;2107;52.306;10.484;2023-01-23T11:58:03;2.40;99.90
4187;DHT22;2107;52.306;10.484;2023-01-23T12:00:38;2.40;99.90
4187;DHT22;2107;52.306;10.484;2023-01-23T12:03:33;2.30;99.90
4187;DHT22;2107;52.306;10.484;2023-01-23T12:06:14;2.40;99.90
4187;DHT22;2107;52.306;10.484;2023-01-23T12:08:52;2.40;99.90
4187;DHT22;2107;52.306;10.484;2023-01-23T12:11:21;2.30;99.90
4187;DHT22;2107;52.306;10.484;2023-01-23T12:13:59;2.30;99.90
4187;DHT22;2107;52.306;10.484;2023-01-23T12:16:37;2.40;99.90
4187;DHT22;2107;52.306;10.484;2023-01-23T12:19:20;2.40;99.90
4187;DHT22;2107;52.306;10.484;2023-01-23T12:21:57;2.40;99.90
4187;DHT22;2107;52.306;10.484;2023-01-23T12:24:38;2.50;99.90
4187;DHT22;2107;52.306;10.484;2023-01-23T12:27:14;2.50;99.90
4187;DHT22;2107;52.306;10.484;2023-01-23T12:30:12;2.50;99.90
4187;DHT22;2107;52.306;10.484;2023-01-23T12:32:47;2.60;99.90
4187;DHT22;2107;52.306;10.484;2023-01-23T12:35:34;2.60;99.90
4187;DHT22;2107;52.306;10.484;2023-01-23T12:38:23;2.70;99.90
4187;DHT22;2107;52.306;10.484;2023-01-23T12:40:54;2.60;99.90
4187;DHT22;2107;52.306;10.484;2023-01-23T12:43:35;2.60;99.90
4187;DHT22;2107;52.306;10.484;2023-01-23T12:46:07;2.60;99.90
4187;DHT22;2107;52.306;10.484;2023-01-23T12:48:38;2.60;99.90
4187;DHT22;2107;52.306;10.484;2023-01-23T12:51:11;2.40;99.90
4187;DHT22;2107;52.306;10.484;2023-01-23T12:53:43;2.50;99.90
4187;DHT22;2107;52.306;10.484;2023-01-23T12:56:15;2.50;99.90
4187;DHT22;2107;52.306;10.484;2023-01-23T12:58:48;2.50;99.90
4187;DHT22;2107;52.306;10.484;2023-01-23T13:01:28;2.50;99.90
4187;DHT22;2107;52.306;10.484;2023-01-23T13:04:07;2.40;99.90
4187;DHT22;2107;52.306;10.484;2023-01-23T13:06:55;2.40;99.90
4187;DHT22;2107;52.306;10.484;2023-01-23T13:09:34;2.40;99.90
4187;DHT22;2107;52.306;10.484;2023-01-23T13:12:10;2.40;99.90
4187;DHT22;2107;52.306;10.484;2023-01-23T13:14:44;2.30;99.90
4187;DHT22;2107;52.306;10.484;2023-01-23T13:17:36;2.40;99.90
4187;DHT22;2107;52.306;10.484;2023-01-23T13:20:21;2.30;99.90
4187;DHT22;2107;52.306;10.484;2023-01-23T13:23:23;2.30;99.90
4187;DHT22;2107;52.306;10.484;2023-01-23T13:26:23;2.30;99.90
4187;DHT22;2107;52.306;10.484;2023-01-23T13:28:53;2.30;99.90
4187;DHT22;2107;52.306;10.484;2023-01-23T13:31:26;2.30;99.90
4187;DHT22;2107;52.306;10.484;2023-01-23T13:33:58;2.20;99.90
4187;DHT22;2107;52.306;10.484;2023-01-23T13:36:31;2.30;99.90
4187;DHT22;2107;52.306;10.484;2023-01-23T13:39:24;2.40;99.90
4187;DHT22;2107;52.306;10.484;2023-01-23T13:45:23;2.30;99.90
4187;DHT22;2107;52.306;10.484;2023-01-23T13:51:16;2.30;99.90
4187;DHT22;2107;52.306;10.484;2023-01-23T13:53:46;2.30;99.90
4187;DHT22;2107;52.306;10.484;2023-01-23T13:56:31;2.30;99.90
4187;DHT22;2107;52.306;10.484;2023-01-23T13:59:14;2.40;99.90
4187;DHT22;2107;52.306;10.484;2023-01-23T14:01:51;2.30;99.90
4187;DHT22;2107;52.306;10.484;2023-01-23T14:04:40;2.30;99.90
4187;DHT22;2107;52.306;10.484;2023-01-23T14:07:27;2.20;99.90
4187;DHT22;2107;52.306;10.484;2023-01-23T14:10:19;2.20;99.90
4187;DHT22;2107;52.306;10.484;2023-01-23T14:12:47;2.20;99.90
4187;DHT22;2107;52.306;10.484;2023-01-23T14:15:22;2.20;99.90
4187;DHT22;2107;52.306;10.484;2023-01-23T14:18:17;2.20;99.90
4187;DHT22;2107;52.306;10.484;2023-01-23T14:20:44;2.20;99.90
4187;DHT22;2107;52.306;10.484;2023-01-23T14:23:33;2.30;99.90
4187;DHT22;2107;52.306;10.484;2023-01-23T14:26:02;2.20;99.90
4187;DHT22;2107;52.306;10.484;2023-01-23T14:28:29;2.30;99.90
4187;DHT22;2107;52.306;10.484;2023-01-23T14:31:01;2.30;99.90
4187;DHT22;2107;52.306;10.484;2023-01-23T14:33:39;2.30;99.90
4187;DHT22;2107;52.306;10.484;2023-01-23T14:36:12;2.30;99.90
4187;DHT22;2107;52.306;10.484;2023-01-23T14:38:41;2.30;99.90
4187;DHT22;2107;52.306;10.484;2023-01-23T14:41:08;2.30;99.90
4187;DHT22;2107;52.306;10.484;2023-01-23T14:43:36;2.30;99.90
4187;DHT22;2107;52.306;10.484;2023-01-23T14:46:05;2.30;99.90
4187;DHT22;2107;52.306;10.484;2023-01-23T14:48:37;2.30;99.90
4187;DHT22;2107;52.306;10.484;2023-01-23T14:51:09;2.30;99.90
4187;DHT22;2107;52.306;10.484;2023-01-23T14:53:40;2.30;99.90
4187;DHT22;2107;52.306;10.484;2023-01-23T14:56:09;2.30;99.90
4187;DHT22;2107;52.306;10.484;2023-01-23T14:58:37;2.30;99.90
4187;DHT22;2107;52.306;10.484;2023-01-23T15:01:04;2.20;99.90
4187;DHT22;2107;52.306;10.484;2023-01-23T15:03:37;2.30;99.90
4187;DHT22;2107;52.306;10.484;2023-01-23T15:06:11;2.30;99.90
4187;DHT22;2107;52.306;10.484;2023-01-23T15:08:38;2.30;99.90
4187;DHT22;2107;52.306;10.484;2023-01-23T15:11:06;2.20;99.90
4187;DHT22;2107;52.306;10.484;2023-01-23T15:13:41;2.20;99.90
4187;DHT22;2107;52.306;10.484;2023-01-23T15:16:13;2.20;99.90
4187;DHT22;2107;52.306;10.484;2023-01-23T15:18:51;2.30;99.90
4187;DHT22;2107;52.306;10.484;2023-01-23T15:21:26;2.20;99.90
4187;DHT22;2107;52.306;10.484;2023-01-23T15:27:00;2.30;99.90
4187;DHT22;2107;52.306;10.484;2023-01-23T15:29:29;2.20;99.90
4187;DHT22;2107;52.306;10.484;2023-01-23T15:31:58;2.10;99.90
4187;DHT22;2107;52.306;10.484;2023-01-23T15:34:28;2.10;99.90
4187;DHT22;2107;52.306;10.484;2023-01-23T15:36:59;2.20;99.90
4187;DHT22;2107;52.306;10.484;2023-01-23T15:39:27;2.10;99.90
4187;DHT22;2107;52.306;10.484;2023-01-23T15:41:56;2.10;99.90
4187;DHT22;2107;52.306;10.484;2023-01-23T15:44:26;2.10;99.90
4187;DHT22;2107;52.306;10.484;2023-01-23T15:46:54;2.10;99.90
4187;DHT22;2107;52.306;10.484;2023-01-23T15:49:21;2.10;99.90
4187;DHT22;2107;52.306;10.484;2023-01-23T15:51:50;2.10;99.90
4187;DHT22;2107;52.306;10.484;2023-01-23T15:54:22;2.10;99.90
4187;DHT22;2107;52.306;10.484;2023-01-23T15:56:50;2.10;99.90
4187;DHT22;2107;52.306;10.484;2023-01-23T15:59:18;2.00;99.90
4187;DHT22;2107;52.306;10.484;2023-01-23T16:01:45;2.00;99.90
4187;DHT22;2107;52.306;10.484;2023-01-23T16:04:12;2.00;99.90
4187;DHT22;2107;52.306;10.484;2023-01-23T16:06:39;2.00;99.90
4187;DHT22;2107;52.306;10.484;2023-01-23T16:09:19;1.90;99.90
4187;DHT22;2107;52.306;10.484;2023-01-23T16:11:46;1.90;99.90
4187;DHT22;2107;52.306;10.484;2023-01-23T16:14:17;1.90;99.90
4187;DHT22;2107;52.306;10.484;2023-01-23T16:16:44;1.90;99.90
4187;DHT22;2107;52.306;10.484;2023-01-23T16:19:11;1.80;99.90
4187;DHT22;2107;52.306;10.484;2023-01-23T16:21:39;1.80;99.90
4187;DHT22;2107;52.306;10.484;2023-01-23T16:24:16;1.90;99.90
4187;DHT22;2107;52.306;10.484;2023-01-23T16:26:44;1.80;99.90
4187;DHT22;2107;52.306;10.484;2023-01-23T16:29:28;1.90;99.90
4187;DHT22;2107;52.306;10.484;2023-01-23T16:31:55;1.80;99.90
4187;DHT22;2107;52.306;10.484;2023-01-23T16:34:23;1.80;99.90